sensor_id;sensor_type;location;lat;lon;timestamp;P1;durP1;ratioP1;P2;durP2;ratioP2
53835;SDS011;39737;43.334;21.936;2022-12-22T00:01:09;4.88;;;4.40;;
53835;SDS011;39737;43.334;21.936;2022-12-22T00:04:14;6.82;;;4.03;;
53835;SDS011;39737;43.334;21.936;2022-12-22T00:07:19;4.35;;;3.92;;
53835;SDS011;39737;43.334;21.936;2022-12-22T00:10:24;3.38;;;2.92;;
53835;SDS011;39737;43.334;21.936;2022-12-22T00:13:29;4.25;;;3.25;;
53835;SDS011;39737;43.334;21.936;2022-12-22T00:16:35;5.63;;;4.80;;
53835;SDS011;39737;43.334;21.936;2022-12-22T00:19:40;5.68;;;4.93;;
53835;SDS011;39737;43.334;21.936;2022-12-22T00:22:50;4.32;;;3.95;;
53835;SDS011;39737;43.334;21.936;2022-12-22T00:26:09;5.07;;;4.60;;
53835;SDS011;39737;43.334;21.936;2022-12-22T00:29:14;4.93;;;4.43;;
53835;SDS011;39737;43.334;21.936;2022-12-22T00:32:18;5.43;;;3.03;;
53835;SDS011;39737;43.334;21.936;2022-12-22T00:35:23;20.17;;;5.88;;
53835;SDS011;39737;43.334;21.936;2022-12-22T00:38:28;5.25;;;3.47;;
53835;SDS011;39737;43.334;21.936;2022-12-22T00:41:33;2.38;;;2.28;;
53835;SDS011;39737;43.334;21.936;2022-12-22T00:44:38;24.35;;;5.00;;
53835;SDS011;39737;43.334;21.936;2022-12-22T00:47:43;3.78;;;3.15;;
53835;SDS011;39737;43.334;21.936;2022-12-22T00:50:48;4.47;;;4.07;;
53835;SDS011;39737;43.334;21.936;2022-12-22T00:53:53;12.85;;;3.67;;
53835;SDS011;39737;43.334;21.936;2022-12-22T00:57:01;4.35;;;3.75;;
53835;SDS011;39737;43.334;21.936;2022-12-22T01:00:13;3.88;;;3.63;;
53835;SDS011;39737;43.334;21.936;2022-12-22T01:03:18;7.50;;;4.20;;
53835;SDS011;39737;43.334;21.936;2022-12-22T01:06:22;4.85;;;3.75;;
53835;SDS011;39737;43.334;21.936;2022-12-22T01:09:27;11.57;;;4.10;;
53835;SDS011;39737;43.334;21.936;2022-12-22T01:12:32;4.95;;;4.55;;
53835;SDS011;39737;43.334;21.936;2022-12-22T01:15:37;4.18;;;3.83;;
53835;SDS011;39737;43.334;21.936;2022-12-22T01:18:42;10.80;;;5.03;;
53835;SDS011;39737;43.334;21.936;2022-12-22T01:21:46;1.92;;;1.83;;
53835;SDS011;39737;43.334;21.936;2022-12-22T01:24:51;6.53;;;5.63;;
53835;SDS011;39737;43.334;21.936;2022-12-22T01:27:56;3.78;;;3.47;;
53835;SDS011;39737;43.334;21.936;2022-12-22T01:31:15;7.82;;;3.05;;
53835;SDS011;39737;43.334;21.936;2022-12-22T01:34:20;8.65;;;5.00;;
53835;SDS011;39737;43.334;21.936;2022-12-22T01:37:25;9.45;;;5.03;;
53835;SDS011;39737;43.334;21.936;2022-12-22T01:40:29;4.97;;;4.03;;
53835;SDS011;39737;43.334;21.936;2022-12-22T01:43:34;6.68;;;4.57;;
53835;SDS011;39737;43.334;21.936;2022-12-22T01:46:43;4.60;;;3.42;;
53835;SDS011;39737;43.334;21.936;2022-12-22T01:49:47;3.75;;;2.65;;
53835;SDS011;39737;43.334;21.936;2022-12-22T01:52:52;6.65;;;3.40;;
53835;SDS011;39737;43.334;21.936;2022-12-22T01:56:04;5.73;;;5.20;;
53835;SDS011;39737;43.334;21.936;2022-12-22T01:59:09;2.78;;;2.20;;
53835;SDS011;39737;43.334;21.936;2022-12-22T02:02:15;8.25;;;5.57;;
53835;SDS011;39737;43.334;21.936;2022-12-22T02:05:21;2.92;;;2.67;;
53835;SDS011;39737;43.334;21.936;2022-12-22T02:08:26;3.53;;;3.30;;
53835;SDS011;39737;43.334;21.936;2022-12-22T02:14:50;5.13;;;3.85;;
53835;SDS011;39737;43.334;21.936;2022-12-22T02:18:14;4.60;;;4.20;;
53835;SDS011;39737;43.334;21.936;2022-12-22T02:21:23;10.05;;;3.72;;
53835;SDS011;39737;43.334;21.936;2022-12-22T02:24:34;5.07;;;4.63;;
53835;SDS011;39737;43.334;21.936;2022-12-22T02:27:41;10.05;;;2.75;;
53835;SDS011;39737;43.334;21.936;2022-12-22T02:30:49;15.20;;;8.27;;
53835;SDS011;39737;43.334;21.936;2022-12-22T02:33:54;10.80;;;5.03;;
53835;SDS011;39737;43.334;21.936;2022-12-22T02:37:02;3.30;;;2.55;;
53835;SDS011;39737;43.334;21.936;2022-12-22T02:40:11;2.28;;;2.08;;
53835;SDS011;39737;43.334;21.936;2022-12-22T02:43:29;3.35;;;3.05;;
53835;SDS011;39737;43.334;21.936;2022-12-22T02:50:08;3.47;;;1.77;;
53835;SDS011;39737;43.334;21.936;2022-12-22T02:53:14;4.57;;;4.07;;
53835;SDS011;39737;43.334;21.936;2022-12-22T02:56:20;4.93;;;4.55;;
53835;SDS011;39737;43.334;21.936;2022-12-22T02:59:26;6.78;;;5.80;;
53835;SDS011;39737;43.334;21.936;2022-12-22T03:02:30;7.38;;;3.13;;
53835;SDS011;39737;43.334;21.936;2022-12-22T03:05:35;5.55;;;2.55;;
53835;SDS011;39737;43.334;21.936;2022-12-22T03:08:39;3.85;;;3.55;;
53835;SDS011;39737;43.334;21.936;2022-12-22T03:11:44;2.55;;;2.20;;
53835;SDS011;39737;43.334;21.936;2022-12-22T03:14:48;3.15;;;2.92;;
53835;SDS011;39737;43.334;21.936;2022-12-22T03:17:59;1.45;;;1.45;;
53835;SDS011;39737;43.334;21.936;2022-12-22T03:21:04;3.53;;;1.70;;
53835;SDS011;39737;43.334;21.936;2022-12-22T03:24:08;3.40;;;3.20;;
53835;SDS011;39737;43.334;21.936;2022-12-22T03:27:14;4.70;;;2.85;;
53835;SDS011;39737;43.334;21.936;2022-12-22T03:30:00;3.10;;;2.80;;
53835;SDS011;39737;43.334;21.936;2022-12-22T03:32:46;3.58;;;3.30;;
53835;SDS011;39737;43.334;21.936;2022-12-22T03:35:32;4.78;;;2.60;;
53835;SDS011;39737;43.334;21.936;2022-12-22T03:38:18;1.38;;;1.38;;
53835;SDS011;39737;43.334;21.936;2022-12-22T03:41:04;1.92;;;1.83;;
53835;SDS011;39737;43.334;21.936;2022-12-22T03:43:50;4.10;;;3.72;;
53835;SDS011;39737;43.334;21.936;2022-12-22T03:46:55;1.65;;;1.55;;
53835;SDS011;39737;43.334;21.936;2022-12-22T03:49:41;3.90;;;2.55;;
53835;SDS011;39737;43.334;21.936;2022-12-22T03:52:27;7.13;;;5.55;;
53835;SDS011;39737;43.334;21.936;2022-12-22T03:55:13;4.22;;;3.85;;
53835;SDS011;39737;43.334;21.936;2022-12-22T03:57:59;3.42;;;3.03;;
53835;SDS011;39737;43.334;21.936;2022-12-22T04:00:45;3.90;;;2.92;;
53835;SDS011;39737;43.334;21.936;2022-12-22T04:03:31;1.67;;;1.63;;
53835;SDS011;39737;43.334;21.936;2022-12-22T04:06:18;3.08;;;2.85;;
53835;SDS011;39737;43.334;21.936;2022-12-22T04:09:04;2.03;;;1.92;;
53835;SDS011;39737;43.334;21.936;2022-12-22T04:11:50;6.28;;;3.90;;
53835;SDS011;39737;43.334;21.936;2022-12-22T04:14:55;2.28;;;2.00;;
53835;SDS011;39737;43.334;21.936;2022-12-22T04:17:41;1.52;;;1.42;;
53835;SDS011;39737;43.334;21.936;2022-12-22T04:20:27;1.45;;;1.38;;
53835;SDS011;39737;43.334;21.936;2022-12-22T04:23:13;2.78;;;2.65;;
53835;SDS011;39737;43.334;21.936;2022-12-22T04:25:59;2.30;;;2.10;;
53835;SDS011;39737;43.334;21.936;2022-12-22T04:28:45;4.03;;;2.97;;
53835;SDS011;39737;43.334;21.936;2022-12-22T04:31:31;4.85;;;4.40;;
53835;SDS011;39737;43.334;21.936;2022-12-22T04:34:18;8.48;;;5.25;;
53835;SDS011;39737;43.334;21.936;2022-12-22T04:37:04;5.18;;;3.35;;
53835;SDS011;39737;43.334;21.936;2022-12-22T04:40:20;1.50;;;1.38;;
53835;SDS011;39737;43.334;21.936;2022-12-22T04:43:06;7.75;;;6.25;;
53835;SDS011;39737;43.334;21.936;2022-12-22T04:45:53;2.17;;;1.98;;
53835;SDS011;39737;43.334;21.936;2022-12-22T04:48:57;5.47;;;3.33;;
53835;SDS011;39737;43.334;21.936;2022-12-22T04:51:45;2.92;;;2.72;;
53835;SDS011;39737;43.334;21.936;2022-12-22T04:54:31;2.30;;;2.05;;
53835;SDS011;39737;43.334;21.936;2022-12-22T04:57:17;2.10;;;1.63;;
53835;SDS011;39737;43.334;21.936;2022-12-22T05:00:06;2.67;;;2.45;;
53835;SDS011;39737;43.334;21.936;2022-12-22T05:02:53;5.32;;;3.17;;
53835;SDS011;39737;43.334;21.936;2022-12-22T05:05:39;4.95;;;3.47;;
53835;SDS011;39737;43.334;21.936;2022-12-22T05:08:25;2.35;;;2.15;;
53835;SDS011;39737;43.334;21.936;2022-12-22T05:11:11;2.17;;;1.98;;
53835;SDS011;39737;43.334;21.936;2022-12-22T05:13:57;11.70;;;5.22;;
53835;SDS011;39737;43.334;21.936;2022-12-22T05:16:51;3.92;;;3.60;;
53835;SDS011;39737;43.334;21.936;2022-12-22T05:19:37;4.07;;;1.48;;
53835;SDS011;39737;43.334;21.936;2022-12-22T05:22:23;3.17;;;2.97;;
53835;SDS011;39737;43.334;21.936;2022-12-22T05:25:09;2.25;;;2.15;;
53835;SDS011;39737;43.334;21.936;2022-12-22T05:27:56;3.60;;;2.65;;
53835;SDS011;39737;43.334;21.936;2022-12-22T05:30:42;14.85;;;4.20;;
53835;SDS011;39737;43.334;21.936;2022-12-22T05:33:28;4.15;;;2.58;;
53835;SDS011;39737;43.334;21.936;2022-12-22T05:36:14;6.22;;;5.70;;
53835;SDS011;39737;43.334;21.936;2022-12-22T05:39:00;5.43;;;4.93;;
53835;SDS011;39737;43.334;21.936;2022-12-22T05:41:46;6.28;;;4.25;;
53835;SDS011;39737;43.334;21.936;2022-12-22T05:44:32;10.25;;;6.22;;
53835;SDS011;39737;43.334;21.936;2022-12-22T05:47:18;2.30;;;2.10;;
53835;SDS011;39737;43.334;21.936;2022-12-22T05:50:04;3.85;;;3.55;;
53835;SDS011;39737;43.334;21.936;2022-12-22T05:52:51;8.63;;;4.72;;
53835;SDS011;39737;43.334;21.936;2022-12-22T05:55:38;7.25;;;3.13;;
53835;SDS011;39737;43.334;21.936;2022-12-22T05:58:24;3.95;;;3.28;;
53835;SDS011;39737;43.334;21.936;2022-12-22T06:01:10;9.40;;;2.72;;
53835;SDS011;39737;43.334;21.936;2022-12-22T06:03:57;2.67;;;2.20;;
53835;SDS011;39737;43.334;21.936;2022-12-22T06:06:45;2.78;;;2.60;;
53835;SDS011;39737;43.334;21.936;2022-12-22T06:09:31;5.18;;;1.90;;
53835;SDS011;39737;43.334;21.936;2022-12-22T06:12:17;4.28;;;3.80;;
53835;SDS011;39737;43.334;21.936;2022-12-22T06:15:04;11.70;;;3.92;;
53835;SDS011;39737;43.334;21.936;2022-12-22T06:17:50;3.70;;;3.40;;
53835;SDS011;39737;43.334;21.936;2022-12-22T06:20:36;2.38;;;2.28;;
53835;SDS011;39737;43.334;21.936;2022-12-22T06:23:22;2.42;;;2.28;;
53835;SDS011;39737;43.334;21.936;2022-12-22T06:26:08;13.93;;;5.25;;
53835;SDS011;39737;43.334;21.936;2022-12-22T06:28:55;4.00;;;3.63;;
53835;SDS011;39737;43.334;21.936;2022-12-22T06:31:41;4.28;;;3.97;;
53835;SDS011;39737;43.334;21.936;2022-12-22T06:34:27;9.38;;;5.35;;
53835;SDS011;39737;43.334;21.936;2022-12-22T06:37:13;4.15;;;3.65;;
53835;SDS011;39737;43.334;21.936;2022-12-22T06:39:59;6.28;;;2.42;;
53835;SDS011;39737;43.334;21.936;2022-12-22T06:42:45;9.05;;;6.68;;
53835;SDS011;39737;43.334;21.936;2022-12-22T06:45:54;6.28;;;5.68;;
53835;SDS011;39737;43.334;21.936;2022-12-22T06:48:40;9.95;;;4.47;;
53835;SDS011;39737;43.334;21.936;2022-12-22T06:51:26;7.63;;;4.55;;
53835;SDS011;39737;43.334;21.936;2022-12-22T06:54:12;22.75;;;12.45;;
53835;SDS011;39737;43.334;21.936;2022-12-22T06:56:58;26.63;;;12.52;;
53835;SDS011;39737;43.334;21.936;2022-12-22T06:59:44;22.98;;;10.18;;
53835;SDS011;39737;43.334;21.936;2022-12-22T07:02:35;28.10;;;15.90;;
53835;SDS011;39737;43.334;21.936;2022-12-22T07:05:22;19.88;;;10.50;;
53835;SDS011;39737;43.334;21.936;2022-12-22T07:08:08;13.73;;;10.23;;
53835;SDS011;39737;43.334;21.936;2022-12-22T07:10:55;41.40;;;18.50;;
53835;SDS011;39737;43.334;21.936;2022-12-22T07:13:44;12.50;;;10.27;;
53835;SDS011;39737;43.334;21.936;2022-12-22T07:16:30;16.20;;;10.73;;
53835;SDS011;39737;43.334;21.936;2022-12-22T07:19:16;17.50;;;9.52;;
53835;SDS011;39737;43.334;21.936;2022-12-22T07:22:02;54.10;;;24.25;;
53835;SDS011;39737;43.334;21.936;2022-12-22T07:24:48;33.30;;;14.52;;
53835;SDS011;39737;43.334;21.936;2022-12-22T07:27:34;12.00;;;7.70;;
53835;SDS011;39737;43.334;21.936;2022-12-22T07:30:20;4.32;;;2.92;;
53835;SDS011;39737;43.334;21.936;2022-12-22T07:33:06;4.43;;;3.85;;
53835;SDS011;39737;43.334;21.936;2022-12-22T07:35:59;9.55;;;5.88;;
53835;SDS011;39737;43.334;21.936;2022-12-22T07:38:47;46.15;;;20.73;;
53835;SDS011;39737;43.334;21.936;2022-12-22T07:41:34;12.68;;;8.77;;
53835;SDS011;39737;43.334;21.936;2022-12-22T07:44:39;11.02;;;6.22;;
53835;SDS011;39737;43.334;21.936;2022-12-22T07:47:25;21.25;;;6.38;;
53835;SDS011;39737;43.334;21.936;2022-12-22T07:50:19;10.57;;;4.93;;
53835;SDS011;39737;43.334;21.936;2022-12-22T07:53:17;5.38;;;4.88;;
53835;SDS011;39737;43.334;21.936;2022-12-22T07:56:03;61.70;;;29.95;;
53835;SDS011;39737;43.334;21.936;2022-12-22T07:58:50;97.55;;;45.10;;
53835;SDS011;39737;43.334;21.936;2022-12-22T08:01:36;122.85;;;67.68;;
53835;SDS011;39737;43.334;21.936;2022-12-22T08:04:22;40.60;;;14.48;;
53835;SDS011;39737;43.334;21.936;2022-12-22T08:07:08;25.90;;;15.43;;
53835;SDS011;39737;43.334;21.936;2022-12-22T08:09:54;17.77;;;11.57;;
53835;SDS011;39737;43.334;21.936;2022-12-22T08:12:40;16.95;;;10.77;;
53835;SDS011;39737;43.334;21.936;2022-12-22T08:15:27;76.20;;;38.80;;
53835;SDS011;39737;43.334;21.936;2022-12-22T08:18:13;60.45;;;26.55;;
53835;SDS011;39737;43.334;21.936;2022-12-22T08:20:59;108.93;;;50.13;;
53835;SDS011;39737;43.334;21.936;2022-12-22T08:23:45;13.25;;;9.20;;
53835;SDS011;39737;43.334;21.936;2022-12-22T08:26:35;16.98;;;9.52;;
53835;SDS011;39737;43.334;21.936;2022-12-22T08:29:35;14.50;;;9.95;;
53835;SDS011;39737;43.334;21.936;2022-12-22T08:32:23;45.38;;;21.38;;
53835;SDS011;39737;43.334;21.936;2022-12-22T08:35:09;7.03;;;4.78;;
53835;SDS011;39737;43.334;21.936;2022-12-22T08:37:55;12.60;;;5.50;;
53835;SDS011;39737;43.334;21.936;2022-12-22T08:40:41;8.85;;;4.90;;
53835;SDS011;39737;43.334;21.936;2022-12-22T08:43:46;36.83;;;17.20;;
53835;SDS011;39737;43.334;21.936;2022-12-22T08:46:33;10.98;;;7.63;;
53835;SDS011;39737;43.334;21.936;2022-12-22T08:49:19;14.73;;;9.48;;
53835;SDS011;39737;43.334;21.936;2022-12-22T08:52:05;5.00;;;4.50;;
53835;SDS011;39737;43.334;21.936;2022-12-22T08:54:55;15.60;;;11.48;;
53835;SDS011;39737;43.334;21.936;2022-12-22T08:57:41;15.93;;;8.80;;
53835;SDS011;39737;43.334;21.936;2022-12-22T09:00:27;9.55;;;6.38;;
53835;SDS011;39737;43.334;21.936;2022-12-22T09:03:14;11.38;;;5.60;;
53835;SDS011;39737;43.334;21.936;2022-12-22T09:06:00;51.80;;;23.48;;
53835;SDS011;39737;43.334;21.936;2022-12-22T09:08:47;8.02;;;7.10;;
53835;SDS011;39737;43.334;21.936;2022-12-22T09:11:33;9.48;;;6.15;;
53835;SDS011;39737;43.334;21.936;2022-12-22T09:14:19;11.98;;;8.52;;
53835;SDS011;39737;43.334;21.936;2022-12-22T09:17:06;67.45;;;31.90;;
53835;SDS011;39737;43.334;21.936;2022-12-22T09:19:52;37.40;;;16.20;;
53835;SDS011;39737;43.334;21.936;2022-12-22T09:22:38;51.75;;;23.80;;
53835;SDS011;39737;43.334;21.936;2022-12-22T09:25:24;24.35;;;12.88;;
53835;SDS011;39737;43.334;21.936;2022-12-22T09:28:10;92.88;;;42.47;;
53835;SDS011;39737;43.334;21.936;2022-12-22T09:30:56;95.65;;;44.20;;
53835;SDS011;39737;43.334;21.936;2022-12-22T09:33:42;117.45;;;54.42;;
53835;SDS011;39737;43.334;21.936;2022-12-22T09:36:29;70.18;;;35.25;;
53835;SDS011;39737;43.334;21.936;2022-12-22T09:39:16;76.13;;;35.80;;
53835;SDS011;39737;43.334;21.936;2022-12-22T09:42:11;72.00;;;37.20;;
53835;SDS011;39737;43.334;21.936;2022-12-22T09:45:00;122.55;;;59.97;;
53835;SDS011;39737;43.334;21.936;2022-12-22T09:47:47;67.70;;;29.35;;
53835;SDS011;39737;43.334;21.936;2022-12-22T09:50:38;75.17;;;33.17;;
53835;SDS011;39737;43.334;21.936;2022-12-22T09:53:25;85.93;;;43.25;;
53835;SDS011;39737;43.334;21.936;2022-12-22T09:56:12;73.97;;;35.08;;
53835;SDS011;39737;43.334;21.936;2022-12-22T09:58:59;53.28;;;26.13;;
53835;SDS011;39737;43.334;21.936;2022-12-22T10:07:37;56.40;;;26.63;;
53835;SDS011;39737;43.334;21.936;2022-12-22T10:13:50;55.72;;;27.42;;
53835;SDS011;39737;43.334;21.936;2022-12-22T10:16:36;71.43;;;37.17;;
53835;SDS011;39737;43.334;21.936;2022-12-22T10:19:41;72.25;;;35.78;;
53835;SDS011;39737;43.334;21.936;2022-12-22T10:22:31;63.55;;;32.20;;
53835;SDS011;39737;43.334;21.936;2022-12-22T10:28:42;66.38;;;35.30;;
53835;SDS011;39737;43.334;21.936;2022-12-22T10:31:32;60.80;;;29.83;;
53835;SDS011;39737;43.334;21.936;2022-12-22T10:34:20;50.63;;;25.85;;
53835;SDS011;39737;43.334;21.936;2022-12-22T10:37:06;51.63;;;28.33;;
53835;SDS011;39737;43.334;21.936;2022-12-22T10:39:52;66.07;;;31.17;;
53835;SDS011;39737;43.334;21.936;2022-12-22T10:42:42;61.78;;;31.95;;
53835;SDS011;39737;43.334;21.936;2022-12-22T10:45:28;61.67;;;26.98;;
53835;SDS011;39737;43.334;21.936;2022-12-22T10:48:14;55.92;;;30.63;;
53835;SDS011;39737;43.334;21.936;2022-12-22T10:51:03;59.65;;;28.17;;
53835;SDS011;39737;43.334;21.936;2022-12-22T10:53:52;67.88;;;33.47;;
53835;SDS011;39737;43.334;21.936;2022-12-22T10:57:00;67.90;;;32.97;;
53835;SDS011;39737;43.334;21.936;2022-12-22T11:02:38;134.45;;;57.97;;
53835;SDS011;39737;43.334;21.936;2022-12-22T11:05:25;76.78;;;40.15;;
53835;SDS011;39737;43.334;21.936;2022-12-22T11:08:20;58.85;;;28.00;;
53835;SDS011;39737;43.334;21.936;2022-12-22T11:11:08;58.10;;;28.02;;
53835;SDS011;39737;43.334;21.936;2022-12-22T11:19:55;108.43;;;48.60;;
53835;SDS011;39737;43.334;21.936;2022-12-22T11:22:48;87.32;;;41.05;;
53835;SDS011;39737;43.334;21.936;2022-12-22T11:49:15;64.00;;;29.35;;
53835;SDS011;39737;43.334;21.936;2022-12-22T11:55:12;72.10;;;33.92;;
53835;SDS011;39737;43.334;21.936;2022-12-22T12:00:57;68.80;;;31.63;;
53835;SDS011;39737;43.334;21.936;2022-12-22T12:18:47;59.38;;;28.02;;
53835;SDS011;39737;43.334;21.936;2022-12-22T12:21:41;64.50;;;31.63;;
53835;SDS011;39737;43.334;21.936;2022-12-22T12:24:41;72.93;;;32.65;;
53835;SDS011;39737;43.334;21.936;2022-12-22T12:30:51;45.92;;;20.77;;
53835;SDS011;39737;43.334;21.936;2022-12-22T12:33:42;69.03;;;31.65;;
53835;SDS011;39737;43.334;21.936;2022-12-22T12:42:42;29.65;;;11.38;;
53835;SDS011;39737;43.334;21.936;2022-12-22T12:45:38;36.83;;;18.30;;
53835;SDS011;39737;43.334;21.936;2022-12-22T12:54:39;19.63;;;10.87;;
53835;SDS011;39737;43.334;21.936;2022-12-22T13:09:35;57.33;;;26.80;;
53835;SDS011;39737;43.334;21.936;2022-12-22T13:12:48;39.65;;;21.00;;
53835;SDS011;39737;43.334;21.936;2022-12-22T13:15:40;27.50;;;12.68;;
53835;SDS011;39737;43.334;21.936;2022-12-22T13:21:22;34.22;;;16.83;;
53835;SDS011;39737;43.334;21.936;2022-12-22T13:24:41;38.40;;;17.13;;
53835;SDS011;39737;43.334;21.936;2022-12-22T13:27:35;33.55;;;13.02;;
53835;SDS011;39737;43.334;21.936;2022-12-22T13:30:21;41.38;;;19.20;;
53835;SDS011;39737;43.334;21.936;2022-12-22T13:33:09;49.47;;;23.70;;
53835;SDS011;39737;43.334;21.936;2022-12-22T13:35:57;86.13;;;37.97;;
53835;SDS011;39737;43.334;21.936;2022-12-22T13:38:44;82.93;;;34.63;;
53835;SDS011;39737;43.334;21.936;2022-12-22T13:41:30;71.05;;;33.75;;
53835;SDS011;39737;43.334;21.936;2022-12-22T13:44:18;76.18;;;35.92;;
53835;SDS011;39737;43.334;21.936;2022-12-22T13:47:11;32.42;;;16.52;;
53835;SDS011;39737;43.334;21.936;2022-12-22T13:49:59;14.35;;;8.38;;
53835;SDS011;39737;43.334;21.936;2022-12-22T13:52:53;47.10;;;22.67;;
53835;SDS011;39737;43.334;21.936;2022-12-22T13:55:40;70.93;;;32.70;;
53835;SDS011;39737;43.334;21.936;2022-12-22T13:58:35;39.92;;;20.00;;
53835;SDS011;39737;43.334;21.936;2022-12-22T14:01:22;65.07;;;30.13;;
53835;SDS011;39737;43.334;21.936;2022-12-22T14:04:14;61.08;;;28.90;;
53835;SDS011;39737;43.334;21.936;2022-12-22T14:07:19;9.95;;;8.25;;
53835;SDS011;39737;43.334;21.936;2022-12-22T14:10:06;36.97;;;17.27;;
53835;SDS011;39737;43.334;21.936;2022-12-22T14:12:52;12.32;;;7.78;;
53835;SDS011;39737;43.334;21.936;2022-12-22T14:15:38;35.13;;;15.13;;
53835;SDS011;39737;43.334;21.936;2022-12-22T14:18:24;84.25;;;36.75;;
53835;SDS011;39737;43.334;21.936;2022-12-22T14:21:11;49.15;;;24.80;;
53835;SDS011;39737;43.334;21.936;2022-12-22T14:23:57;10.93;;;8.23;;
53835;SDS011;39737;43.334;21.936;2022-12-22T14:26:44;84.78;;;38.83;;
53835;SDS011;39737;43.334;21.936;2022-12-22T14:29:30;58.70;;;28.77;;
53835;SDS011;39737;43.334;21.936;2022-12-22T14:38:36;86.45;;;38.58;;
53835;SDS011;39737;43.334;21.936;2022-12-22T14:41:18;21.80;;;7.70;;
53835;SDS011;39737;43.334;21.936;2022-12-22T14:44:25;41.53;;;18.13;;
53835;SDS011;39737;43.334;21.936;2022-12-22T14:47:13;30.05;;;11.60;;
53835;SDS011;39737;43.334;21.936;2022-12-22T14:50:03;57.47;;;23.88;;
53835;SDS011;39737;43.334;21.936;2022-12-22T14:52:58;71.60;;;31.65;;
53835;SDS011;39737;43.334;21.936;2022-12-22T14:55:48;86.05;;;37.70;;
53835;SDS011;39737;43.334;21.936;2022-12-22T14:58:35;22.90;;;8.20;;
53835;SDS011;39737;43.334;21.936;2022-12-22T15:01:26;13.05;;;6.53;;
53835;SDS011;39737;43.334;21.936;2022-12-22T15:04:17;55.83;;;24.65;;
53835;SDS011;39737;43.334;21.936;2022-12-22T15:07:14;74.88;;;35.67;;
53835;SDS011;39737;43.334;21.936;2022-12-22T15:10:21;13.57;;;6.93;;
53835;SDS011;39737;43.334;21.936;2022-12-22T15:13:12;29.67;;;13.65;;
53835;SDS011;39737;43.334;21.936;2022-12-22T15:16:01;52.10;;;21.08;;
53835;SDS011;39737;43.334;21.936;2022-12-22T15:18:48;4.60;;;4.07;;
53835;SDS011;39737;43.334;21.936;2022-12-22T15:21:35;12.88;;;7.93;;
53835;SDS011;39737;43.334;21.936;2022-12-22T15:24:21;21.52;;;7.38;;
53835;SDS011;39737;43.334;21.936;2022-12-22T15:27:09;15.90;;;7.43;;
53835;SDS011;39737;43.334;21.936;2022-12-22T15:29:55;15.02;;;8.10;;
53835;SDS011;39737;43.334;21.936;2022-12-22T15:32:41;52.75;;;24.35;;
53835;SDS011;39737;43.334;21.936;2022-12-22T15:38:18;80.85;;;29.13;;
53835;SDS011;39737;43.334;21.936;2022-12-22T15:41:04;6.47;;;5.75;;
53835;SDS011;39737;43.334;21.936;2022-12-22T15:44:10;13.15;;;7.03;;
53835;SDS011;39737;43.334;21.936;2022-12-22T15:46:58;33.88;;;16.35;;
53835;SDS011;39737;43.334;21.936;2022-12-22T15:50:02;35.75;;;18.05;;
53835;SDS011;39737;43.334;21.936;2022-12-22T15:52:50;11.38;;;6.90;;
53835;SDS011;39737;43.334;21.936;2022-12-22T15:55:39;67.85;;;30.27;;
53835;SDS011;39737;43.334;21.936;2022-12-22T15:58:30;20.92;;;15.32;;
53835;SDS011;39737;43.334;21.936;2022-12-22T16:01:17;39.60;;;19.48;;
53835;SDS011;39737;43.334;21.936;2022-12-22T16:04:03;9.23;;;6.40;;
53835;SDS011;39737;43.334;21.936;2022-12-22T16:06:49;30.30;;;10.55;;
53835;SDS011;39737;43.334;21.936;2022-12-22T16:09:39;30.58;;;15.93;;
53835;SDS011;39737;43.334;21.936;2022-12-22T16:12:25;45.10;;;21.52;;
53835;SDS011;39737;43.334;21.936;2022-12-22T16:15:12;8.98;;;4.05;;
53835;SDS011;39737;43.334;21.936;2022-12-22T16:17:58;8.73;;;5.10;;
53835;SDS011;39737;43.334;21.936;2022-12-22T16:20:45;3.72;;;3.38;;
53835;SDS011;39737;43.334;21.936;2022-12-22T16:23:32;2.92;;;2.70;;
53835;SDS011;39737;43.334;21.936;2022-12-22T16:26:22;19.05;;;5.95;;
53835;SDS011;39737;43.334;21.936;2022-12-22T16:29:10;15.85;;;5.25;;
53835;SDS011;39737;43.334;21.936;2022-12-22T16:32:14;11.77;;;4.63;;
53835;SDS011;39737;43.334;21.936;2022-12-22T16:37:57;36.35;;;13.98;;
53835;SDS011;39737;43.334;21.936;2022-12-22T16:40:45;40.60;;;16.75;;
53835;SDS011;39737;43.334;21.936;2022-12-22T16:43:34;10.35;;;6.75;;
53835;SDS011;39737;43.334;21.936;2022-12-22T16:46:37;4.18;;;3.90;;
53835;SDS011;39737;43.334;21.936;2022-12-22T16:49:24;7.25;;;4.70;;
53835;SDS011;39737;43.334;21.936;2022-12-22T16:52:19;3.22;;;2.95;;
53835;SDS011;39737;43.334;21.936;2022-12-22T16:55:13;34.33;;;15.43;;
53835;SDS011;39737;43.334;21.936;2022-12-22T16:57:59;18.50;;;3.95;;
53835;SDS011;39737;43.334;21.936;2022-12-22T17:00:46;16.08;;;6.25;;
53835;SDS011;39737;43.334;21.936;2022-12-22T17:03:32;77.15;;;31.50;;
53835;SDS011;39737;43.334;21.936;2022-12-22T17:06:22;9.93;;;7.28;;
53835;SDS011;39737;43.334;21.936;2022-12-22T17:09:12;23.27;;;11.45;;
53835;SDS011;39737;43.334;21.936;2022-12-22T17:12:00;15.35;;;10.82;;
53835;SDS011;39737;43.334;21.936;2022-12-22T17:14:47;12.20;;;6.53;;
53835;SDS011;39737;43.334;21.936;2022-12-22T17:17:34;15.02;;;5.18;;
53835;SDS011;39737;43.334;21.936;2022-12-22T17:20:27;17.70;;;9.70;;
53835;SDS011;39737;43.334;21.936;2022-12-22T17:23:25;7.15;;;5.03;;
53835;SDS011;39737;43.334;21.936;2022-12-22T17:26:13;2.95;;;2.85;;
53835;SDS011;39737;43.334;21.936;2022-12-22T17:29:01;9.48;;;3.05;;
53835;SDS011;39737;43.334;21.936;2022-12-22T17:31:47;5.55;;;5.03;;
53835;SDS011;39737;43.334;21.936;2022-12-22T17:34:36;2.28;;;2.05;;
53835;SDS011;39737;43.334;21.936;2022-12-22T17:37:22;4.82;;;4.15;;
53835;SDS011;39737;43.334;21.936;2022-12-22T17:40:10;42.65;;;21.70;;
53835;SDS011;39737;43.334;21.936;2022-12-22T17:43:18;8.55;;;7.53;;
53835;SDS011;39737;43.334;21.936;2022-12-22T17:46:07;112.32;;;54.05;;
53835;SDS011;39737;43.334;21.936;2022-12-22T17:48:55;59.80;;;31.27;;
53835;SDS011;39737;43.334;21.936;2022-12-22T17:51:42;39.47;;;16.65;;
53835;SDS011;39737;43.334;21.936;2022-12-22T17:54:28;28.27;;;18.92;;
53835;SDS011;39737;43.334;21.936;2022-12-22T17:57:16;38.42;;;17.85;;
53835;SDS011;39737;43.334;21.936;2022-12-22T18:00:10;35.00;;;13.48;;
53835;SDS011;39737;43.334;21.936;2022-12-22T18:03:04;11.80;;;8.45;;
53835;SDS011;39737;43.334;21.936;2022-12-22T18:05:51;26.58;;;11.82;;
53835;SDS011;39737;43.334;21.936;2022-12-22T18:08:37;8.75;;;6.95;;
53835;SDS011;39737;43.334;21.936;2022-12-22T18:11:23;7.38;;;5.68;;
53835;SDS011;39737;43.334;21.936;2022-12-22T18:14:13;11.10;;;8.13;;
53835;SDS011;39737;43.334;21.936;2022-12-22T18:17:01;15.07;;;8.45;;
53835;SDS011;39737;43.334;21.936;2022-12-22T18:19:47;16.58;;;10.32;;
53835;SDS011;39737;43.334;21.936;2022-12-22T18:22:33;25.33;;;14.30;;
53835;SDS011;39737;43.334;21.936;2022-12-22T18:25:20;42.60;;;17.73;;
53835;SDS011;39737;43.334;21.936;2022-12-22T18:28:14;35.83;;;15.00;;
53835;SDS011;39737;43.334;21.936;2022-12-22T18:31:00;20.63;;;14.98;;
53835;SDS011;39737;43.334;21.936;2022-12-22T18:33:49;34.38;;;18.25;;
53835;SDS011;39737;43.334;21.936;2022-12-22T18:36:36;23.30;;;13.68;;
53835;SDS011;39737;43.334;21.936;2022-12-22T18:39:24;39.28;;;11.77;;
53835;SDS011;39737;43.334;21.936;2022-12-22T18:42:20;10.60;;;8.00;;